Time;durP1;ratioP1;P1;durP2;ratioP2;P2;SDS_P1;SDS_P2;PMS_P1;PMS_P2;Temp;Humidity;BMP_temperature;BMP_pressure;BME280_temperature;BME280_humidity;BME280_pressure;Samples;Min_cycle;Max_cycle;Signal;HPM_P1;HPM_P2
2022/12/19 00:01:29;;;;;;;12.32;2.40;;;22.50;53.20;;;;;;5032238;28;20044;-64
2022/12/19 00:03:59;;;;;;;10.33;2.90;;;22.30;52.60;;;;;;5031808;28;20036;-64
2022/12/19 00:06:27;;;;;;;10.60;2.38;;;22.00;53.90;;;;;;5050038;28;20661;-66
2022/12/19 00:08:57;;;;;;;7.75;1.85;;;21.90;54.10;;;;;;5051598;28;20028;-66
2022/12/19 00:11:26;;;;;;;17.13;3.35;;;21.80;53.40;;;;;;5051434;28;20029;-67
2022/12/19 00:13:53;;;;;;;10.30;2.40;;;21.50;53.60;;;;;;5051995;28;20060;-66
2022/12/19 00:16:23;;;;;;;11.68;2.00;;;21.30;52.60;;;;;;5041802;28;20501;-67
2022/12/19 00:18:51;;;;;;;12.13;1.98;;;21.30;52.80;;;;;;5031999;28;20026;-67
2022/12/19 00:21:21;;;;;;;9.73;2.00;;;21.60;53.30;;;;;;5031793;28;20079;-67
2022/12/19 00:23:49;;;;;;;7.38;1.85;;;21.70;53.30;;;;;;5031633;28;20112;-68
2022/12/19 00:26:22;;;;;;;8.75;1.33;;;21.80;53.90;;;;;;5031316;28;20029;-68
2022/12/19 00:28:56;;;;;;;16.67;1.95;;;21.90;51.50;;;;;;5035661;28;20036;-66
2022/12/19 00:31:26;;;;;;;9.70;2.63;;;22.00;53.00;;;;;;5031379;28;20029;-66
2022/12/19 00:33:53;;;;;;;8.18;1.85;;;22.50;53.80;;;;;;5051318;28;20600;-66
2022/12/19 00:36:29;;;;;;;9.45;2.15;;;23.10;52.70;;;;;;5030443;28;20075;-66
2022/12/19 00:38:58;;;;;;;9.55;3.75;;;23.40;51.40;;;;;;5031174;28;20029;-66
2022/12/19 00:41:28;;;;;;;10.30;2.00;;;23.10;50.30;;;;;;5046611;28;20025;-66
2022/12/19 00:43:58;;;;;;;10.15;2.22;;;23.30;50.80;;;;;;5044383;28;20206;-66
2022/12/19 00:46:26;;;;;;;14.07;3.30;;;22.90;51.00;;;;;;5031125;28;20048;-66
2022/12/19 00:48:54;;;;;;;12.90;2.60;;;22.60;51.80;;;;;;5031400;28;20022;-65
2022/12/19 00:51:24;;;;;;;9.88;2.47;;;22.30;52.10;;;;;;5031292;28;20037;-67
2022/12/19 00:53:54;;;;;;;22.30;2.92;;;22.60;52.50;;;;;;5031630;28;20394;-66
2022/12/19 00:56:24;;;;;;;6.85;1.73;;;22.60;51.70;;;;;;5051801;28;20432;-72
2022/12/19 00:58:53;;;;;;;12.13;2.33;;;22.40;52.10;;;;;;5052684;28;20025;-70
2022/12/19 01:01:24;;;;;;;11.32;2.42;;;22.60;52.70;;;;;;5046948;28;20021;-69
2022/12/19 01:03:52;;;;;;;10.50;2.08;;;22.50;51.80;;;;;;5048272;28;20048;-69
2022/12/19 01:06:19;;;;;;;9.63;2.60;;;22.60;52.70;;;;;;5040005;28;20021;-69
2022/12/19 01:08:46;;;;;;;10.48;2.00;;;22.70;53.10;;;;;;5030647;28;20040;-67
2022/12/19 01:11:14;;;;;;;10.48;2.92;;;22.80;52.80;;;;;;5041000;28;20025;-66
2022/12/19 01:13:41;;;;;;;9.75;2.10;;;23.00;52.10;;;;;;5042238;28;20095;-67
2022/12/19 01:16:12;;;;;;;11.40;2.10;;;22.90;50.80;;;;;;5035298;28;20102;-68
2022/12/19 01:18:40;;;;;;;13.40;2.65;;;22.60;51.00;;;;;;5047781;28;20096;-68
2022/12/19 01:21:10;;;;;;;12.20;2.92;;;22.60;52.90;;;;;;5050196;28;20096;-68
2022/12/19 01:23:37;;;;;;;8.90;2.50;;;22.40;53.00;;;;;;5045826;28;20017;-68
2022/12/19 01:26:04;;;;;;;10.02;1.80;;;22.20;54.00;;;;;;5047617;28;20025;-69
2022/12/19 01:28:32;;;;;;;10.38;2.50;;;22.30;55.10;;;;;;5050102;28;20104;-68
2022/12/19 01:30:59;;;;;;;9.73;3.45;;;22.30;54.00;;;;;;5039926;28;20389;-69
2022/12/19 01:33:26;;;;;;;9.48;3.90;;;22.40;55.10;;;;;;5038232;28;20029;-69
2022/12/19 01:35:53;;;;;;;11.50;2.42;;;22.40;54.50;;;;;;5038547;28;20393;-69
2022/12/19 01:38:21;;;;;;;11.95;2.25;;;22.50;53.30;;;;;;5039425;28;20020;-69
2022/12/19 01:40:56;;;;;;;11.80;2.25;;;22.80;53.60;;;;;;5038389;28;20119;-69
2022/12/19 01:43:24;;;;;;;14.50;2.42;;;23.10;52.60;;;;;;5039023;28;20056;-69
2022/12/19 01:46:02;;;;;;;8.50;2.20;;;23.30;52.80;;;;;;5037480;28;20041;-69
2022/12/19 01:48:43;;;;;;;9.13;2.22;;;23.00;52.70;;;;;;5038624;28;20036;-69
2022/12/19 01:51:19;;;;;;;12.98;2.38;;;22.90;54.50;;;;;;5037795;28;20466;-69
2022/12/19 01:53:57;;;;;;;8.77;2.35;;;23.10;55.00;;;;;;5040210;28;20116;-66
2022/12/19 01:56:30;;;;;;;12.52;3.05;;;23.90;51.70;;;;;;5037080;28;20563;-67
2022/12/19 01:59:00;;;;;;;9.63;2.40;;;23.50;50.80;;;;;;5040846;28;20029;-70
2022/12/19 02:01:28;;;;;;;9.57;2.00;;;23.10;51.60;;;;;;5029722;28;20474;-69
2022/12/19 02:03:57;;;;;;;6.75;1.98;;;23.30;51.60;;;;;;5030061;28;20025;-68
2022/12/19 02:06:25;;;;;;;14.02;2.85;;;23.80;52.30;;;;;;5043598;28;20103;-69
2022/12/19 02:08:55;;;;;;;11.82;2.20;;;24.00;52.90;;;;;;5049968;28;20021;-68
2022/12/19 02:11:22;;;;;;;15.05;2.80;;;23.80;53.90;;;;;;5047742;28;20031;-70
2022/12/19 02:13:49;;;;;;;17.92;3.25;;;23.90;54.00;;;;;;5029618;28;20025;-67
2022/12/19 02:16:44;;;;;;;13.43;2.80;;;23.80;54.60;;;;;;5028005;28;20036;-68
2022/12/19 02:19:30;;;;;;;14.07;2.85;;;23.80;54.90;;;;;;5028569;28;20022;-67
2022/12/19 02:22:16;;;;;;;9.98;2.60;;;23.50;54.70;;;;;;5039820;28;20031;-68
2022/12/19 02:24:55;;;;;;;11.82;2.70;;;23.20;55.60;;;;;;5049372;28;20025;-68
2022/12/19 02:27:34;;;;;;;16.55;3.67;;;22.90;55.10;;;;;;5049846;28;20020;-68
2022/12/19 02:30:30;;;;;;;17.27;2.63;;;23.00;55.70;;;;;;5040732;28;20076;-68
2022/12/19 02:33:27;;;;;;;13.77;2.50;;;23.30;55.30;;;;;;5035342;28;20033;-68
2022/12/19 02:35:59;;;;;;;16.88;3.08;;;23.40;55.30;;;;;;5030654;28;20036;-68
2022/12/19 02:38:27;;;;;;;11.32;2.92;;;24.00;54.80;;;;;;5032171;28;20116;-68
2022/12/19 02:41:41;;;;;;;16.27;2.65;;;24.00;53.10;;;;;;5028400;28;20067;-68
2022/12/19 02:44:44;;;;;;;15.60;3.63;;;23.90;52.90;;;;;;5031654;28;20074;-68
2022/12/19 02:47:12;;;;;;;14.85;2.47;;;23.30;52.50;;;;;;5042556;28;20041;-67
2022/12/19 02:49:40;;;;;;;16.42;4.95;;;23.50;52.80;;;;;;5043500;28;20108;-68
2022/12/19 02:52:33;;;;;;;16.60;4.40;;;23.80;50.60;;;;;;5046192;28;20034;-68
2022/12/19 02:55:07;;;;;;;12.38;2.13;;;23.60;51.20;;;;;;5027860;28;20063;-68
2022/12/19 02:58:01;;;;;;;19.58;2.67;;;23.70;51.80;;;;;;5041126;28;20021;-68
2022/12/19 03:00:29;;;;;;;9.73;2.40;;;23.50;51.60;;;;;;5035554;28;20528;-68
2022/12/19 03:03:15;;;;;;;11.63;2.25;;;23.60;51.70;;;;;;5028292;28;20029;-67
2022/12/19 03:06:09;;;;;;;16.48;2.78;;;23.70;50.50;;;;;;5031922;28;20017;-68
2022/12/19 03:08:57;;;;;;;11.93;2.85;;;23.60;51.20;;;;;;5034775;28;20036;-67
2022/12/19 03:11:28;;;;;;;11.52;2.25;;;23.90;50.60;;;;;;5044316;28;20128;-69
2022/12/19 03:14:06;;;;;;;10.77;2.35;;;24.50;50.50;;;;;;5035460;28;20030;-68
2022/12/19 03:16:37;;;;;;;9.38;2.03;;;25.00;50.20;;;;;;5051605;28;20582;-68
2022/12/19 03:19:08;;;;;;;11.60;2.80;;;25.60;47.30;;;;;;5043828;28;20034;-68
2022/12/19 03:21:42;;;;;;;10.27;3.15;;;25.70;47.20;;;;;;5042295;28;20033;-68
2022/12/19 03:24:11;;;;;;;9.88;2.50;;;25.50;47.00;;;;;;5041639;28;20025;-67
2022/12/19 03:26:51;;;;;;;10.40;2.38;;;25.40;46.60;;;;;;5044664;28;20029;-68
2022/12/19 03:29:26;;;;;;;8.18;1.67;;;25.00;45.30;;;;;;5045167;28;20095;-67
2022/12/19 03:31:55;;;;;;;10.50;2.35;;;25.00;45.90;;;;;;5062965;28;20041;-67
2022/12/19 03:34:28;;;;;;;13.40;2.75;;;24.90;45.80;;;;;;5043411;28;20100;-67
2022/12/19 03:37:00;;;;;;;13.90;2.38;;;24.60;47.60;;;;;;5048018;28;20051;-68
2022/12/19 03:39:30;;;;;;;15.70;2.83;;;25.00;47.60;;;;;;5053489;28;20032;-68
2022/12/19 03:44:46;;;;;;;12.85;3.03;;;25.50;48.50;;;;;;5050085;28;20401;-68
2022/12/19 03:47:15;;;;;;;16.75;3.95;;;25.20;47.70;;;;;;5050918;28;20131;-67
2022/12/19 03:49:44;;;;;;;12.82;2.67;;;24.80;49.90;;;;;;5048840;28;20027;-68
2022/12/19 03:52:33;;;;;;;11.80;2.90;;;25.20;49.70;;;;;;5052999;28;20478;-68
2022/12/19 03:55:12;;;;;;;13.15;2.88;;;24.80;49.30;;;;;;5052610;28;20079;-68
2022/12/19 03:58:00;;;;;;;14.65;3.63;;;24.30;50.10;;;;;;5042136;28;20107;-67
2022/12/19 04:00:29;;;;;;;14.15;2.90;;;24.20;51.70;;;;;;5042019;28;20473;-68
2022/12/19 04:02:57;;;;;;;12.95;2.92;;;24.10;51.30;;;;;;5066079;28;20102;-67
2022/12/19 04:05:27;;;;;;;13.18;2.88;;;24.10;51.90;;;;;;5047772;28;20056;-68
2022/12/19 04:08:00;;;;;;;17.08;2.90;;;24.30;52.10;;;;;;5057079;28;20048;-68
2022/12/19 04:10:28;;;;;;;14.70;2.50;;;24.20;51.30;;;;;;5040928;28;20086;-68
2022/12/19 04:13:11;;;;;;;13.82;2.53;;;24.30;52.00;;;;;;5042884;28;20045;-67
2022/12/19 04:15:58;;;;;;;10.77;2.33;;;24.30;51.90;;;;;;5048252;28;20564;-67
2022/12/19 04:18:26;;;;;;;13.52;2.55;;;24.40;51.80;;;;;;5051354;28;20033;-67
2022/12/19 04:21:12;;;;;;;10.52;2.42;;;24.40;51.30;;;;;;5043503;28;20029;-67
2022/12/19 04:23:52;;;;;;;16.50;2.55;;;24.10;52.20;;;;;;5036449;28;20063;-67
2022/12/19 04:26:20;;;;;;;10.10;1.85;;;24.10;52.30;;;;;;5047162;28;20087;-68
2022/12/19 04:28:55;;;;;;;13.25;2.33;;;24.00;52.00;;;;;;5042169;28;20025;-67
2022/12/19 04:31:23;;;;;;;16.55;2.88;;;23.90;52.60;;;;;;5050815;28;20024;-66
2022/12/19 04:33:50;;;;;;;18.63;3.13;;;23.80;53.20;;;;;;5058627;28;20037;-67
2022/12/19 04:36:18;;;;;;;15.48;2.97;;;23.40;53.50;;;;;;5041064;28;20029;-68
2022/12/19 04:38:45;;;;;;;15.88;3.22;;;22.70;55.50;;;;;;5041747;28;20029;-67
2022/12/19 04:41:12;;;;;;;17.00;3.45;;;22.50;57.40;;;;;;5052520;28;20431;-67
2022/12/19 04:43:39;;;;;;;12.15;2.50;;;22.80;57.00;;;;;;5039936;28;20025;-67
2022/12/19 04:46:07;;;;;;;15.68;2.90;;;23.20;55.80;;;;;;5043070;28;20052;-67
2022/12/19 04:48:37;;;;;;;22.17;4.28;;;23.20;54.90;;;;;;5038923;28;20021;-67
2022/12/19 04:51:05;;;;;;;14.18;3.10;;;22.70;55.00;;;;;;5035081;28;20434;-67
2022/12/19 04:53:33;;;;;;;15.82;4.65;;;22.60;55.80;;;;;;5042411;28;20033;-67
2022/12/19 04:56:02;;;;;;;10.15;2.67;;;22.50;55.90;;;;;;5046685;28;20057;-68
2022/12/19 04:58:29;;;;;;;16.45;2.50;;;22.20;56.30;;;;;;5054318;28;20059;-68
2022/12/19 05:01:05;;;;;;;20.17;3.50;;;22.00;56.70;;;;;;5051926;28;20028;-67
2022/12/19 05:03:32;;;;;;;13.07;3.50;;;21.50;58.20;;;;;;5054555;28;20028;-66
2022/12/19 05:06:08;;;;;;;13.55;3.08;;;22.10;58.40;;;;;;5051367;28;20405;-67
2022/12/19 05:08:36;;;;;;;10.25;2.42;;;22.70;56.90;;;;;;5036832;28;20025;-67
2022/12/19 05:11:04;;;;;;;13.68;2.75;;;22.80;55.30;;;;;;5049894;28;20028;-67
2022/12/19 05:13:32;;;;;;;14.07;2.63;;;22.70;55.10;;;;;;5039389;28;20024;-68
2022/12/19 05:16:07;;;;;;;12.85;3.08;;;22.20;55.30;;;;;;5043748;28;20044;-67
2022/12/19 05:18:36;;;;;;;17.05;3.00;;;22.20;57.10;;;;;;5051136;28;20461;-67
2022/12/19 05:21:03;;;;;;;12.30;3.10;;;22.10;56.20;;;;;;5049268;28;20478;-66
2022/12/19 05:23:30;;;;;;;12.45;3.50;;;22.50;55.00;;;;;;5064089;28;20024;-67
2022/12/19 05:25:59;;;;;;;20.10;2.40;;;22.40;54.80;;;;;;5046661;28;20035;-67
2022/12/19 05:28:26;;;;;;;15.02;2.92;;;22.20;55.10;;;;;;5047110;28;20048;-67
2022/12/19 05:31:09;;;;;;;12.45;3.00;;;21.90;55.20;;;;;;5063099;28;20036;-67
2022/12/19 05:33:37;;;;;;;12.88;2.78;;;21.90;56.40;;;;;;5050354;28;20448;-67
2022/12/19 05:36:05;;;;;;;14.95;2.83;;;22.00;55.50;;;;;;5051918;28;20437;-67
2022/12/19 05:38:33;;;;;;;16.67;2.50;;;21.80;56.50;;;;;;5054319;28;20052;-66
2022/12/19 05:41:05;;;;;;;11.25;3.03;;;21.90;56.10;;;;;;5044747;28;20021;-66
2022/12/19 05:43:33;;;;;;;21.13;3.05;;;22.00;56.40;;;;;;5042882;28;20024;-66
2022/12/19 05:46:00;;;;;;;15.55;3.42;;;22.10;57.40;;;;;;5041449;28;20120;-65
2022/12/19 05:48:27;;;;;;;16.13;2.70;;;22.20;57.10;;;;;;5044081;28;20500;-66
2022/12/19 05:50:54;;;;;;;16.85;2.97;;;22.00;58.10;;;;;;5038969;28;20063;-67
2022/12/19 05:53:22;;;;;;;11.73;2.53;;;21.80;56.60;;;;;;5062120;28;20521;-67
2022/12/19 05:55:49;;;;;;;14.57;2.70;;;21.80;56.70;;;;;;5054844;28;20501;-67
2022/12/19 05:58:20;;;;;;;17.85;2.67;;;22.10;56.00;;;;;;5041559;28;20068;-67
2022/12/19 06:00:47;;;;;;;14.55;2.70;;;22.30;55.10;;;;;;5039201;28;20018;-67
2022/12/19 06:03:14;;;;;;;14.48;3.72;;;22.30;54.90;;;;;;5049153;28;20312;-64
2022/12/19 06:05:42;;;;;;;15.52;3.00;;;22.20;57.10;;;;;;5031740;28;20061;-65
2022/12/19 06:08:09;;;;;;;15.65;3.30;;;22.30;57.60;;;;;;5049358;28;20432;-66
2022/12/19 06:10:36;;;;;;;10.82;2.35;;;22.80;56.70;;;;;;5053460;28;20500;-67
2022/12/19 06:13:03;;;;;;;11.75;3.00;;;22.60;56.30;;;;;;5063441;28;20481;-68
2022/12/19 06:15:30;;;;;;;12.13;2.63;;;22.50;55.80;;;;;;5045153;28;20021;-67
2022/12/19 06:17:58;;;;;;;15.32;2.75;;;22.10;56.40;;;;;;5046270;28;20114;-66
2022/12/19 06:20:25;;;;;;;13.75;3.28;;;22.00;56.60;;;;;;5055783;28;20024;-66
2022/12/19 06:22:52;;;;;;;10.43;2.30;;;22.00;57.20;;;;;;5044517;28;20036;-64
2022/12/19 06:25:19;;;;;;;13.35;3.03;;;22.00;54.60;;;;;;5051803;28;20052;-67
2022/12/19 06:27:47;;;;;;;11.93;3.30;;;22.20;55.40;;;;;;5046046;28;20021;-65
2022/12/19 06:30:14;;;;;;;18.10;2.78;;;22.00;54.60;;;;;;5039978;28;20034;-65
2022/12/19 06:32:41;;;;;;;10.30;2.33;;;21.60;56.30;;;;;;5039470;28;20033;-66
2022/12/19 06:35:09;;;;;;;12.50;2.17;;;21.80;55.30;;;;;;5039574;28;20033;-66
2022/12/19 06:37:36;;;;;;;12.00;2.25;;;21.80;55.50;;;;;;5038253;28;20025;-67
2022/12/19 06:40:04;;;;;;;12.20;2.53;;;21.60;54.60;;;;;;5040258;28;20061;-67
2022/12/19 06:42:31;;;;;;;19.80;3.50;;;21.40;56.10;;;;;;5041673;28;20040;-66
2022/12/19 06:44:58;;;;;;;12.02;2.20;;;21.50;55.60;;;;;;5045866;28;20048;-67
2022/12/19 06:47:25;;;;;;;11.77;2.30;;;21.40;56.60;;;;;;5042784;28;20029;-67
2022/12/19 06:49:53;;;;;;;9.75;2.78;;;21.70;55.10;;;;;;5038363;28;20021;-67
2022/12/19 06:52:21;;;;;;;12.88;2.45;;;21.80;54.30;;;;;;5052522;28;20041;-70
2022/12/19 06:54:48;;;;;;;7.25;2.25;;;21.70;54.40;;;;;;5039886;28;20729;-67
2022/12/19 06:57:15;;;;;;;11.75;2.67;;;21.40;54.80;;;;;;5052074;28;20032;-68
2022/12/19 06:59:42;;;;;;;11.50;2.70;;;21.10;53.70;;;;;;5054827;28;20024;-67
2022/12/19 07:02:27;;;;;;;9.82;2.53;;;21.10;54.40;;;;;;5042719;28;20036;-67
2022/12/19 07:05:05;;;;;;;13.23;2.60;;;21.10;54.30;;;;;;5049093;28;20033;-67
2022/12/19 07:07:33;;;;;;;12.13;2.88;;;21.10;56.30;;;;;;5042957;28;20029;-67
2022/12/19 07:10:00;;;;;;;12.27;2.88;;;21.20;56.70;;;;;;5039068;28;20474;-67
2022/12/19 07:12:27;;;;;;;10.55;2.25;;;21.20;56.70;;;;;;5056901;28;20497;-68
2022/12/19 07:14:54;;;;;;;12.85;2.60;;;21.10;56.10;;;;;;5049773;28;20464;-70
2022/12/19 07:17:23;;;;;;;9.25;2.55;;;21.00;56.00;;;;;;5051650;28;20050;-67
2022/12/19 07:19:53;;;;;;;9.93;2.15;;;20.80;56.60;;;;;;5039541;28;20544;-67
2022/12/19 07:22:21;;;;;;;16.75;2.10;;;20.70;56.50;;;;;;5049885;28;20037;-67
2022/12/19 07:24:48;;;;;;;13.15;2.63;;;20.60;56.40;;;;;;5054656;28;20020;-67
2022/12/19 07:27:16;;;;;;;16.92;3.55;;;20.40;57.40;;;;;;5061017;28;20050;-66
2022/12/19 07:29:43;;;;;;;14.05;2.45;;;20.30;58.60;;;;;;5062993;28;20052;-66
2022/12/19 07:32:10;;;;;;;17.42;2.72;;;20.30;58.60;;;;;;5054679;28;20037;-66
2022/12/19 07:34:38;;;;;;;13.65;2.50;;;20.10;58.90;;;;;;5045872;28;20021;-67
2022/12/19 07:37:05;;;;;;;11.35;2.30;;;20.00;59.80;;;;;;5047235;28;20071;-66
2022/12/19 07:39:33;;;;;;;11.63;2.20;;;19.80;59.30;;;;;;5048975;28;20021;-66
2022/12/19 07:42:00;;;;;;;17.73;2.90;;;19.60;59.70;;;;;;5049012;28;20109;-67
2022/12/19 07:44:27;;;;;;;8.85;1.70;;;19.60;59.90;;;;;;5050767;28;20677;-67
2022/12/19 07:46:54;;;;;;;14.98;2.88;;;19.60;57.70;;;;;;5065449;28;20032;-68
2022/12/19 07:49:22;;;;;;;15.32;2.83;;;19.60;57.00;;;;;;5053727;28;20020;-68
2022/12/19 07:51:49;;;;;;;16.80;3.47;;;19.50;60.00;;;;;;5063609;28;20033;-69
2022/12/19 07:54:16;;;;;;;13.07;2.40;;;19.30;60.90;;;;;;5061335;28;20020;-71
2022/12/19 07:56:43;;;;;;;13.38;2.45;;;19.10;62.50;;;;;;5055145;28;20029;-70
2022/12/19 07:59:11;;;;;;;14.35;3.08;;;18.90;61.40;;;;;;5066489;28;20393;-70
2022/12/19 08:01:39;;;;;;;10.60;1.77;;;18.80;59.80;;;;;;5056009;28;20520;-71
2022/12/19 08:04:06;;;;;;;15.93;2.78;;;18.60;60.60;;;;;;5067346;28;20115;-71
2022/12/19 08:06:33;;;;;;;13.68;2.55;;;18.50;62.70;;;;;;5056938;28;20026;-71
2022/12/19 08:09:00;;;;;;;18.13;3.17;;;18.40;63.80;;;;;;5066430;28;20453;-70
2022/12/19 08:11:28;;;;;;;16.30;2.50;;;18.30;65.00;;;;;;5052791;28;20024;-70
2022/12/19 08:13:57;;;;;;;12.55;2.38;;;18.20;66.60;;;;;;5060073;28;20025;-70
2022/12/19 08:16:26;;;;;;;16.48;2.83;;;18.10;68.30;;;;;;5050292;28;20600;-70
2022/12/19 08:18:56;;;;;;;20.77;3.20;;;18.00;68.60;;;;;;5049453;28;20116;-68
2022/12/19 08:21:24;;;;;;;21.00;3.40;;;17.90;68.30;;;;;;5049443;28;20825;-70
2022/12/19 08:23:52;;;;;;;10.75;2.65;;;17.80;68.50;;;;;;5056675;28;20032;-70
2022/12/19 08:26:23;;;;;;;17.58;2.67;;;17.70;68.80;;;;;;5059288;28;20029;-71
2022/12/19 08:28:56;;;;;;;14.10;2.97;;;17.60;69.10;;;;;;5067193;28;20028;-70
2022/12/19 08:31:25;;;;;;;16.08;2.90;;;17.40;69.60;;;;;;5039625;28;20388;-69
2022/12/19 08:33:55;;;;;;;14.25;2.92;;;17.30;70.40;;;;;;5068197;28;20028;-69
2022/12/19 08:36:23;;;;;;;17.55;3.75;;;17.20;71.70;;;;;;5057880;28;20021;-69
2022/12/19 08:38:51;;;;;;;13.00;5.28;;;17.10;72.70;;;;;;5067158;28;20024;-70
2022/12/19 08:41:18;;;;;;;19.33;4.80;;;17.00;72.60;;;;;;5043901;28;20108;-69
2022/12/19 08:43:53;;;;;;;17.05;3.42;;;16.90;73.70;;;;;;5044661;28;20095;-70
2022/12/19 08:46:21;;;;;;;20.85;3.97;;;16.90;72.20;;;;;;5058301;28;20083;-70
2022/12/19 08:48:51;;;;;;;21.95;6.13;;;16.80;72.80;;;;;;5065897;28;20017;-71
2022/12/19 08:51:19;;;;;;;15.02;2.45;;;16.70;74.20;;;;;;5036630;28;20381;-70
2022/12/19 08:53:46;;;;;;;16.98;3.55;;;16.60;75.00;;;;;;5062550;28;20036;-71
2022/12/19 08:56:18;;;;;;;23.20;3.33;;;16.50;76.10;;;;;;5049480;28;20043;-69
2022/12/19 08:58:47;;;;;;;9.82;2.00;;;16.40;76.90;;;;;;5064162;28;20488;-70
2022/12/19 09:01:19;;;;;;;12.93;2.00;;;16.40;76.80;;;;;;5053249;28;20020;-71
2022/12/19 09:03:47;;;;;;;16.92;2.75;;;16.40;75.90;;;;;;5056153;28;20074;-70
2022/12/19 09:06:16;;;;;;;13.10;2.30;;;16.30;75.40;;;;;;5060292;28;20435;-69
2022/12/19 09:08:43;;;;;;;17.38;3.55;;;16.20;75.20;;;;;;5054212;28;20028;-71
2022/12/19 09:11:13;;;;;;;10.20;2.28;;;16.10;75.60;;;;;;5066184;28;20017;-70
2022/12/19 09:13:42;;;;;;;15.20;3.28;;;16.00;76.40;;;;;;5054589;28;20024;-70
2022/12/19 09:16:15;;;;;;;11.35;2.97;;;16.00;75.90;;;;;;5053808;28;20051;-70
2022/12/19 09:18:45;;;;;;;15.32;2.80;;;16.00;76.30;;;;;;5061283;28;20020;-70
2022/12/19 09:21:12;;;;;;;12.23;1.90;;;16.00;77.10;;;;;;5051357;28;20524;-70
2022/12/19 09:23:40;;;;;;;14.85;2.42;;;15.90;77.80;;;;;;5054887;28;20467;-70
2022/12/19 09:26:11;;;;;;;17.00;2.83;;;15.80;78.90;;;;;;5058885;28;20017;-70
2022/12/19 09:28:40;;;;;;;14.60;2.63;;;15.80;78.70;;;;;;5064393;28;20029;-71
2022/12/19 09:31:13;;;;;;;16.00;2.95;;;15.80;79.20;;;;;;5052683;28;20478;-70
2022/12/19 09:33:40;;;;;;;13.07;2.28;;;15.60;79.40;;;;;;5062855;28;20025;-71
2022/12/19 09:36:11;;;;;;;19.55;2.70;;;15.60;80.30;;;;;;5060367;28;20488;-71
2022/12/19 09:38:38;;;;;;;10.38;2.63;;;15.60;80.20;;;;;;5054485;28;20036;-70
2022/12/19 09:41:43;;;;;;;16.77;2.95;;;15.60;80.60;;;;;;5065572;28;20377;-73
2022/12/19 09:44:25;;;;;;;16.35;3.58;;;15.50;80.80;;;;;;5050313;28;20551;-70
2022/12/19 09:46:59;;;;;;;13.68;1.98;;;15.30;81.80;;;;;;5053003;28;20021;-71
2022/12/19 09:49:39;;;;;;;10.07;1.90;;;15.30;82.40;;;;;;5064540;28;20112;-71
2022/12/19 09:52:17;;;;;;;15.98;2.03;;;15.20;82.00;;;;;;5059271;28;20473;-71
2022/12/19 09:55:17;;;;;;;18.58;2.90;;;15.20;83.30;;;;;;5053651;28;20248;-72
2022/12/19 09:58:14;;;;;;;13.75;2.20;;;15.00;84.20;;;;;;5043626;28;20029;-72
2022/12/19 10:00:57;;;;;;;20.77;2.38;;;15.00;84.30;;;;;;5053339;28;20017;-70
2022/12/19 10:03:41;;;;;;;12.07;2.55;;;15.00;85.00;;;;;;5038276;28;20020;-72
2022/12/19 10:06:21;;;;;;;10.13;2.03;;;15.00;85.30;;;;;;5058329;28;20425;-72
2022/12/19 10:08:49;;;;;;;9.90;2.08;;;14.90;86.20;;;;;;5063233;28;20474;-73
2022/12/19 10:11:16;;;;;;;21.02;2.55;;;14.80;87.10;;;;;;5051639;28;20036;-72
2022/12/19 10:14:02;;;;;;;13.02;3.15;;;14.70;87.60;;;;;;5043840;28;20790;-73
2022/12/19 10:16:49;;;;;;;17.50;2.53;;;14.60;88.90;;;;;;5049760;28;20078;-71
2022/12/19 10:19:40;;;;;;;12.48;2.80;;;14.50;89.30;;;;;;5063170;28;20087;-70
2022/12/19 10:22:26;;;;;;;15.20;2.40;;;14.50;89.90;;;;;;5048423;28;20397;-71
2022/12/19 10:25:26;;;;;;;23.75;3.42;;;14.40;90.20;;;;;;5065738;28;20029;-71
2022/12/19 10:28:19;;;;;;;11.05;2.15;;;14.40;91.20;;;;;;5044937;28;20460;-71
2022/12/19 10:31:08;;;;;;;15.98;2.90;;;14.50;91.30;;;;;;5056931;28;20385;-74
2022/12/19 10:33:46;;;;;;;11.52;2.58;;;14.50;91.50;;;;;;5034491;28;20047;-67
2022/12/19 10:36:14;;;;;;;13.20;3.03;;;14.50;91.70;;;;;;5058993;28;20024;-66
2022/12/19 10:39:11;;;;;;;16.70;2.53;;;14.50;91.80;;;;;;5046722;28;20047;-66
2022/12/19 10:41:43;;;;;;;17.95;3.17;;;14.50;92.10;;;;;;5045062;28;20041;-64
2022/12/19 10:44:12;;;;;;;17.35;2.40;;;14.40;92.20;;;;;;5056724;28;20079;-67
2022/12/19 10:46:41;;;;;;;13.25;3.50;;;14.40;92.20;;;;;;5049918;28;20025;-66
2022/12/19 10:49:22;;;;;;;15.95;2.53;;;14.30;92.70;;;;;;5046017;28;20106;-66
2022/12/19 10:52:00;;;;;;;16.33;3.72;;;14.20;93.10;;;;;;5046278;28;20086;-66
2022/12/19 10:54:40;;;;;;;19.40;2.60;;;14.10;93.30;;;;;;5037506;28;20036;-65
2022/12/19 10:57:27;;;;;;;20.00;4.45;;;14.00;94.30;;;;;;5035936;28;20268;-66
2022/12/19 11:00:20;;;;;;;13.82;2.10;;;14.00;94.50;;;;;;5036996;28;20043;-64
2022/12/19 11:02:52;;;;;;;16.13;2.67;;;14.00;94.90;;;;;;5035209;28;20446;-67
2022/12/19 11:05:29;;;;;;;15.32;3.38;;;13.90;94.90;;;;;;5029241;28;20029;-66
2022/12/19 11:08:25;;;;;;;16.88;2.08;;;13.90;95.10;;;;;;5034028;28;20029;-67
2022/12/19 11:10:56;;;;;;;18.80;3.38;;;13.90;95.50;;;;;;5048975;28;20044;-66
2022/12/19 11:13:45;;;;;;;12.77;2.35;;;13.90;95.70;;;;;;5041861;28;20040;-67
2022/12/19 11:16:21;;;;;;;18.08;2.55;;;13.90;95.60;;;;;;5035062;28;20017;-67
2022/12/19 11:18:48;;;;;;;17.40;2.58;;;13.90;95.80;;;;;;5026788;28;20128;-65
2022/12/19 11:21:27;;;;;;;16.77;2.75;;;13.90;96.00;;;;;;5043638;28;20024;-65
2022/12/19 11:24:02;;;;;;;23.70;3.38;;;13.90;96.10;;;;;;5036395;28;20389;-66
2022/12/19 11:26:42;;;;;;;19.58;3.47;;;13.90;96.20;;;;;;5036129;28;20698;-67
2022/12/19 11:29:26;;;;;;;17.50;3.20;;;13.90;96.20;;;;;;5045962;28;20037;-67
2022/12/19 11:32:01;;;;;;;15.40;4.00;;;13.90;96.20;;;;;;5048066;28;20032;-66
2022/12/19 11:34:31;;;;;;;22.35;2.85;;;13.80;96.50;;;;;;5043050;28;20521;-67
2022/12/19 11:37:36;;;;;;;21.65;3.15;;;13.80;96.60;;;;;;5038675;28;20033;-66
2022/12/19 11:40:11;;;;;;;13.90;3.33;;;13.90;96.60;;;;;;5067918;28;20037;-66
2022/12/19 11:43:05;;;;;;;13.35;4.93;;;13.90;96.50;;;;;;5041301;28;20053;-66
2022/12/19 11:45:50;;;;;;;18.75;4.22;;;13.90;96.80;;;;;;5035701;28;20065;-67
2022/12/19 11:48:24;;;;;;;11.03;2.93;;;14.00;96.60;;;;;;5036032;28;20103;-66
2022/12/19 11:51:39;;;;;;;15.45;2.78;;;14.10;96.60;;;;;;5062323;28;20033;-67
2022/12/19 11:54:26;;;;;;;19.35;2.90;;;14.10;96.40;;;;;;5034613;28;20041;-66
2022/12/19 11:56:53;;;;;;;22.17;3.88;;;14.10;96.20;;;;;;5044403;28;20032;-66
2022/12/19 11:59:33;;;;;;;19.33;3.03;;;14.20;96.10;;;;;;5046882;28;20041;-65
2022/12/19 12:02:37;;;;;;;14.23;2.92;;;14.30;95.70;;;;;;5037061;28;20355;-65
2022/12/19 12:05:32;;;;;;;11.27;2.13;;;14.20;95.70;;;;;;5046612;28;20398;-65
2022/12/19 12:08:17;;;;;;;19.77;4.38;;;14.20;95.60;;;;;;5048180;28;20090;-65
2022/12/19 12:10:50;;;;;;;;;;;14.20;95.70;;;;;;5040005;28;20036;-65
2022/12/19 12:13:30;;;;;;;20.90;3.20;;;14.20;95.90;;;;;;5032286;28;20043;-65
2022/12/19 12:16:14;;;;;;;19.98;2.53;;;14.10;95.70;;;;;;5043822;28;20044;-66
2022/12/19 12:18:47;;;;;;;18.17;2.90;;;14.10;95.80;;;;;;5039852;28;20032;-65
2022/12/19 12:21:28;;;;;;;20.33;3.47;;;14.10;96.20;;;;;;5041833;28;20039;-64
2022/12/19 12:24:27;;;;;;;15.98;2.70;;;14.20;96.00;;;;;;5038801;28;20048;-66
2022/12/19 12:26:58;;;;;;;23.45;4.40;;;14.30;95.70;;;;;;5042472;28;20860;-63
2022/12/19 12:29:51;;;;;;;16.65;2.05;;;14.40;95.40;;;;;;5041227;28;20623;-63
2022/12/19 12:32:29;;;;;;;14.70;2.53;;;14.40;95.10;;;;;;5042924;28;20032;-66
2022/12/19 12:35:03;;;;;;;13.02;2.45;;;14.50;95.20;;;;;;5039020;28;20409;-65
2022/12/19 12:37:55;;;;;;;22.10;3.13;;;14.50;95.10;;;;;;5030588;28;20029;-65
2022/12/19 12:40:39;;;;;;;25.65;2.63;;;14.50;94.90;;;;;;5043207;28;20484;-67
2022/12/19 12:43:38;;;;;;;11.70;2.83;;;14.50;94.90;;;;;;5032874;28;20061;-66
2022/12/19 12:46:15;;;;;;;22.00;4.63;;;14.40;94.90;;;;;;5044429;28;20091;-65
2022/12/19 12:48:59;;;;;;;12.65;1.88;;;14.30;95.20;;;;;;5042167;28;20053;-66
2022/12/19 12:51:27;;;;;;;17.27;2.63;;;14.10;95.40;;;;;;5030598;28;20417;-66
2022/12/19 12:54:06;;;;;;;18.13;3.00;;;14.00;95.90;;;;;;5035901;28;20029;-66
2022/12/19 12:56:37;;;;;;;19.20;2.40;;;13.80;96.20;;;;;;5050504;28;20099;-65
2022/12/19 12:59:19;;;;;;;12.15;2.92;;;13.70;96.80;;;;;;5047953;28;20075;-65
2022/12/19 13:01:56;;;;;;;22.42;3.33;;;13.70;96.90;;;;;;5039972;28;20083;-66
2022/12/19 13:04:30;;;;;;;16.55;2.72;;;13.60;97.50;;;;;;5035018;28;20029;-67
2022/12/19 13:07:19;;;;;;;19.13;3.00;;;13.40;97.40;;;;;;5045664;28;20454;-66
2022/12/19 13:09:53;;;;;;;13.43;2.60;;;13.40;98.00;;;;;;5040437;28;20037;-66
2022/12/19 13:15:41;;;;;;;29.83;3.92;;;13.20;98.50;;;;;;5040724;28;20051;-66
2022/12/19 13:18:36;;;;;;;22.42;2.90;;;13.10;99.00;;;;;;5044435;28;20489;-65